createdAt,value
2022-09-23T00:00:59.632Z,95059.53
2022-09-23T00:03:28.235Z,95065.28
2022-09-23T00:06:01.749Z,95055.25
2022-09-23T00:08:29.547Z,95068.03
2022-09-23T00:10:56.575Z,95058.81
2022-09-23T00:13:26.063Z,95057.09
2022-09-23T00:15:52.827Z,95060.69
2022-09-23T00:18:20.808Z,95062.28
2022-09-23T00:20:47.672Z,95068.75
2022-09-23T00:23:14.048Z,95057.44
2022-09-23T00:25:40.480Z,95059.19
2022-09-23T00:28:06.947Z,95059.53
2022-09-23T00:30:33.770Z,95058.94
2022-09-23T00:33:00.266Z,95054.34
2022-09-23T00:35:26.810Z,95054.91
2022-09-23T00:37:53.204Z,95054.56
2022-09-23T00:40:19.755Z,95052.72
2022-09-23T00:42:52.004Z,95055.16
2022-09-23T00:45:19.076Z,95051.56
2022-09-23T00:47:55.029Z,95043.84
2022-09-23T00:50:35.022Z,95047.31
2022-09-23T00:53:05.520Z,95047.53
2022-09-23T00:55:40.467Z,95043.50
2022-09-23T00:58:11.026Z,95051.47
2022-09-23T01:00:38.190Z,95035.69
2022-09-23T01:03:07.088Z,95037.88
2022-09-23T01:05:34.332Z,95032.34
2022-09-23T01:08:02.820Z,95033.94
2022-09-23T01:10:52.042Z,95036.97
2022-09-23T01:13:35.829Z,95037.81
2022-09-23T01:16:43.645Z,95035.56
2022-09-23T01:19:40.473Z,95036.31
2022-09-23T01:22:24.848Z,95030.94
2022-09-23T01:25:06.664Z,95032.19
2022-09-23T01:27:51.818Z,95028.19
2022-09-23T01:30:47.562Z,95026.31
2022-09-23T01:33:29.390Z,95018.81
2022-09-23T01:36:14.203Z,95020.22
2022-09-23T01:38:53.720Z,95009.50
2022-09-23T01:41:47.209Z,95006.84
2022-09-23T01:44:22.932Z,95007.06
2022-09-23T01:47:14.168Z,94997.88
2022-09-23T01:49:59.061Z,94999.13
2022-09-23T01:52:36.373Z,94994.53
2022-09-23T01:55:05.896Z,94990.03
2022-09-23T01:57:41.244Z,94988.09
2022-09-23T02:00:15.189Z,94986.94
2022-09-23T02:03:07.504Z,94994.19
2022-09-23T02:05:39.520Z,94981.63
2022-09-23T02:08:10.801Z,94985.66
2022-09-23T02:10:45.634Z,94983.47
2022-09-23T02:13:20.616Z,94983.31
2022-09-23T02:15:53.826Z,94979.44
2022-09-23T02:18:25.457Z,94978.50
2022-09-23T02:21:00.327Z,94981.75
2022-09-23T02:23:44.944Z,94985.06
2022-09-23T02:26:24.333Z,94982.06
2022-09-23T02:29:07.848Z,94982.88
2022-09-23T02:32:05.336Z,94991.41
2022-09-23T02:34:37.689Z,94986.78
2022-09-23T02:37:28.764Z,94995.25
2022-09-23T02:40:02.365Z,94994.50
2022-09-23T02:42:56.509Z,94991.59
2022-09-23T02:45:23.597Z,94983.78
2022-09-23T02:47:57.118Z,94988.84
2022-09-23T02:50:23.804Z,94988.59
2022-09-23T02:52:50.294Z,94991.47
2022-09-23T02:55:18.423Z,94999.19
2022-09-23T02:57:45.434Z,94995.16
2022-09-23T03:00:13.036Z,94995.97
2022-09-23T03:03:00.969Z,94989.06
2022-09-23T03:05:31.401Z,94991.34
2022-09-23T03:08:19.243Z,94986.66
2022-09-23T03:11:01.861Z,94982.38
2022-09-23T03:13:35.402Z,94985.59
2022-09-23T03:16:10.892Z,94985.84
2022-09-23T03:18:52.274Z,94990.91
2022-09-23T03:21:35.076Z,94980.41
2022-09-23T03:24:07.305Z,94975.72
2022-09-23T03:26:37.549Z,94967.63
2022-09-23T03:29:08.872Z,94973.13
2022-09-23T03:31:39.672Z,94968.88
2022-09-23T03:34:14.446Z,94973.13
2022-09-23T03:36:51.483Z,94964.03
2022-09-23T03:39:40.208Z,94967.34
2022-09-23T03:42:20.304Z,94974.38
2022-09-23T03:44:48.746Z,94967.72
2022-09-23T03:47:16.504Z,94967.13
2022-09-23T03:49:48.089Z,94967.59
2022-09-23T03:52:15.730Z,94972.88
2022-09-23T03:54:42.361Z,94971.25
2022-09-23T03:57:10.659Z,94968.25
2022-09-23T03:59:37.889Z,94960.56
2022-09-23T04:02:07.722Z,94962.97
2022-09-23T04:04:37.128Z,94967.69
2022-09-23T04:07:04.027Z,94962.22
2022-09-23T04:09:30.474Z,94962.16
2022-09-23T04:11:56.990Z,94965.69
2022-09-23T04:14:24.053Z,94969.34
2022-09-23T04:16:51.036Z,94966.50
2022-09-23T04:19:17.529Z,94966.50
2022-09-23T04:21:44.679Z,94969.81
2022-09-23T04:24:11.879Z,94962.47
2022-09-23T04:26:39.507Z,94958.88
2022-09-23T04:29:06.988Z,94967.47
2022-09-23T04:31:33.973Z,94963.72
2022-09-23T04:34:00.576Z,94955.44
2022-09-23T04:36:27.053Z,94963.34
2022-09-23T04:38:53.463Z,94962.59
2022-09-23T04:41:20.041Z,94961.84
2022-09-23T04:43:46.498Z,94965.47
2022-09-23T04:46:14.979Z,94962.50
2022-09-23T04:48:42.420Z,94965.38
2022-09-23T04:51:10.655Z,94964.13
2022-09-23T04:53:39.284Z,94968.81
2022-09-23T04:56:16.216Z,94969.19
2022-09-23T04:58:43.924Z,94965.25
2022-09-23T05:01:13.470Z,94979.03
2022-09-23T05:03:40.815Z,94975.00
2022-09-23T05:06:08.136Z,94977.66
2022-09-23T05:08:35.836Z,94978.81
2022-09-23T05:11:04.936Z,94980.09
2022-09-23T05:13:32.588Z,94973.13
2022-09-23T05:15:59.122Z,94980.16
2022-09-23T05:18:25.595Z,94972.22
2022-09-23T05:20:55.642Z,94981.31
2022-09-23T05:23:23.487Z,94976.94
2022-09-23T05:25:56.805Z,94978.31
2022-09-23T05:28:23.228Z,94974.50
2022-09-23T05:30:49.573Z,94975.31
2022-09-23T05:33:15.982Z,94980.91
2022-09-23T05:35:48.769Z,94974.44
2022-09-23T05:38:16.787Z,94974.97
2022-09-23T05:40:43.574Z,94974.72
2022-09-23T05:43:10.408Z,94978.81
2022-09-23T05:45:37.029Z,94981.09
2022-09-23T05:48:04.022Z,94975.84
2022-09-23T05:50:30.377Z,94980.44
2022-09-23T05:52:56.782Z,94982.34
2022-09-23T05:55:23.161Z,94986.84
2022-09-23T05:57:49.568Z,94982.44
2022-09-23T06:00:16.566Z,94976.66
2022-09-23T06:02:43.023Z,94972.53
2022-09-23T06:05:09.597Z,94977.72
2022-09-23T06:07:36.252Z,94981.72
2022-09-23T06:10:02.642Z,94973.41
2022-09-23T06:12:29.024Z,94990.47
2022-09-23T06:14:55.474Z,94984.94
2022-09-23T06:17:21.863Z,94979.44
2022-09-23T06:19:48.265Z,94977.81
2022-09-23T06:22:16.873Z,94988.84
2022-09-23T06:24:43.287Z,94978.72
2022-09-23T06:27:10.074Z,94978.09
2022-09-23T06:29:36.910Z,94978.06
2022-09-23T06:32:04.061Z,94981.53
2022-09-23T06:34:32.136Z,94983.75
2022-09-23T06:37:10.050Z,94981.94
2022-09-23T06:39:41.356Z,94971.59
2022-09-23T06:42:07.948Z,94980.44
2022-09-23T06:44:34.791Z,94974.25
2022-09-23T06:47:01.278Z,94989.28
2022-09-23T06:49:27.735Z,94974.22
2022-09-23T06:51:54.837Z,94981.47
2022-09-23T06:54:21.273Z,94981.25
2022-09-23T06:56:47.652Z,94973.22
2022-09-23T06:59:16.899Z,94970.72
2022-09-23T07:01:45.241Z,94969.19
2022-09-23T07:04:11.795Z,94976.31
2022-09-23T07:06:38.305Z,94981.09
2022-09-23T07:09:06.031Z,94980.34
2022-09-23T07:11:32.437Z,94974.56
2022-09-23T07:13:59.104Z,94977.50
2022-09-23T07:16:25.936Z,94973.81
2022-09-23T07:18:53.384Z,94973.88
2022-09-23T07:21:19.951Z,94968.25
2022-09-23T07:23:48.827Z,94975.47
2022-09-23T07:26:18.003Z,94970.75
2022-09-23T07:28:44.912Z,94977.97
2022-09-23T07:31:14.199Z,94972.94
2022-09-23T07:33:44.097Z,94968.31
2022-09-23T07:36:12.295Z,94971.88
2022-09-23T07:38:44.946Z,94968.66
2022-09-23T07:41:14.998Z,94972.38
2022-09-23T07:43:41.516Z,94974.66
2022-09-23T07:46:11.569Z,94979.38
2022-09-23T07:48:39.282Z,94971.03
2022-09-23T07:51:16.715Z,94979.31
2022-09-23T07:53:46.912Z,94978.78
2022-09-23T07:56:13.545Z,94976.66
2022-09-23T07:58:39.949Z,94968.94
2022-09-23T08:01:10.186Z,94960.97
2022-09-23T08:03:37.275Z,94966.06
2022-09-23T08:06:08.715Z,94967.28
2022-09-23T08:08:36.502Z,94969.75
2022-09-23T08:11:08.487Z,94973.19
2022-09-23T08:13:34.906Z,94970.66
2022-09-23T08:16:01.617Z,94966.94
2022-09-23T08:18:28.112Z,94966.09
2022-09-23T08:20:54.523Z,94959.66
2022-09-23T08:23:21.060Z,94970.88
2022-09-23T08:25:47.782Z,94969.38
2022-09-23T08:28:16.734Z,94976.28
2022-09-23T08:30:48.493Z,94967.41
2022-09-23T08:33:19.653Z,94969.16
2022-09-23T08:35:49.239Z,94969.03
2022-09-23T08:38:15.899Z,94975.47
2022-09-23T08:40:47.377Z,94961.63
2022-09-23T08:43:22.483Z,94970.84
2022-09-23T08:45:51.271Z,94961.09
2022-09-23T08:48:27.371Z,94959.16
2022-09-23T08:51:01.463Z,94962.63
2022-09-23T08:53:32.232Z,94966.75
2022-09-23T08:56:00.774Z,94960.63
2022-09-23T08:58:50.709Z,94955.28
2022-09-23T09:01:45.598Z,94968.34
2022-09-23T09:04:24.160Z,94968.22
2022-09-23T09:07:07.557Z,94970.50
2022-09-23T09:09:50.904Z,94969.84
2022-09-23T09:12:45.197Z,94962.00
2022-09-23T09:15:16.526Z,94960.44
2022-09-23T09:18:19.684Z,94953.44
2022-09-23T09:20:52.910Z,94944.91
2022-09-23T09:23:59.997Z,94955.84
2022-09-23T09:26:28.997Z,94936.28
2022-09-23T09:29:33.794Z,94940.22
2022-09-23T09:31:57.621Z,94933.03
2022-09-23T09:34:23.993Z,94932.03
2022-09-23T09:37:07.470Z,94931.13
2022-09-23T09:39:35.379Z,94937.25
2022-09-23T09:42:03.317Z,94937.38
2022-09-23T09:44:54.101Z,94938.25
2022-09-23T09:47:40.495Z,94937.59
2022-09-23T09:50:21.191Z,94927.06
2022-09-23T09:52:49.229Z,94929.91
2022-09-23T09:55:27.409Z,94928.66
2022-09-23T09:58:05.802Z,94922.59
2022-09-23T10:00:42.797Z,94917.06
2022-09-23T10:03:15.259Z,94915.25
2022-09-23T10:05:47.568Z,94911.50
2022-09-23T10:08:29.544Z,94904.22
2022-09-23T10:10:58.604Z,94912.28
2022-09-23T10:13:27.380Z,94904.75
2022-09-23T10:15:54.907Z,94905.91
2022-09-23T10:18:38.269Z,94901.53
2022-09-23T10:21:12.063Z,94899.63
2022-09-23T10:23:42.327Z,94904.25
2022-09-23T10:26:10.214Z,94899.19
2022-09-23T10:28:53.103Z,94894.72
2022-09-23T10:31:24.962Z,94892.19
2022-09-23T10:33:59.618Z,94895.66
2022-09-23T10:36:28.391Z,94889.44
2022-09-23T10:39:23.851Z,94892.81
2022-09-23T10:42:19.945Z,94895.66
2022-09-23T10:45:20.936Z,94891.72
2022-09-23T10:48:13.279Z,94883.44
2022-09-23T10:50:45.011Z,94877.78
2022-09-23T10:53:23.319Z,94873.41
2022-09-23T10:56:13.547Z,94871.94
2022-09-23T10:59:05.123Z,94874.72
2022-09-23T11:01:49.355Z,94874.38
2022-09-23T11:04:32.064Z,94877.34
2022-09-23T11:07:20.646Z,94868.50
2022-09-23T11:10:23.345Z,94867.50
2022-09-23T11:13:25.397Z,94873.31
2022-09-23T11:16:16.752Z,94875.16
2022-09-23T11:18:58.424Z,94867.41
2022-09-23T11:21:31.765Z,94862.06
2022-09-23T11:24:40.135Z,94860.53
2022-09-23T11:27:15.999Z,94861.28
2022-09-23T11:30:03.324Z,94849.16
2022-09-23T11:32:48.822Z,94848.75
2022-09-23T11:35:20.545Z,94847.97
2022-09-23T11:38:05.007Z,94846.34
2022-09-23T11:40:34.959Z,94847.91
2022-09-23T11:43:05.253Z,94839.97
2022-09-23T11:45:36.783Z,94840.84
2022-09-23T11:48:13.077Z,94839.91
2022-09-23T11:50:59.840Z,94835.00
2022-09-23T11:53:45.098Z,94831.88
2022-09-23T11:56:29.268Z,94828.66
2022-09-23T11:59:01.061Z,94828.91
2022-09-23T12:01:37.680Z,94825.19
2022-09-23T12:04:29.326Z,94825.97
2022-09-23T12:07:04.637Z,94819.56
2022-09-23T12:09:59.569Z,94817.09
2022-09-23T12:12:55.984Z,94819.06
2022-09-23T12:15:37.465Z,94816.63
2022-09-23T12:18:11.049Z,94816.88
2022-09-23T12:20:43.282Z,94814.22
2022-09-23T12:23:09.794Z,94808.28
2022-09-23T12:25:51.063Z,94802.38
2022-09-23T12:28:26.160Z,94798.00
2022-09-23T12:30:56.603Z,94804.53
2022-09-23T12:33:24.421Z,94799.34
2022-09-23T12:35:54.132Z,94803.25
2022-09-23T12:38:25.272Z,94798.22
2022-09-23T12:40:55.811Z,94792.00
2022-09-23T12:43:34.435Z,94784.81
2022-09-23T12:46:27.701Z,94788.38
2022-09-23T12:49:00.575Z,94786.72
2022-09-23T12:51:29.417Z,94779.25
2022-09-23T12:54:23.401Z,94782.31
2022-09-23T12:56:55.976Z,94784.94
2022-09-23T12:59:29.466Z,94788.00
2022-09-23T13:01:56.736Z,94777.06
2022-09-23T13:05:01.264Z,94773.66
2022-09-23T13:07:32.098Z,94768.44
2022-09-23T13:10:09.001Z,94769.94
2022-09-23T13:12:39.367Z,94766.00
2022-09-23T13:15:20.153Z,94761.28
2022-09-23T13:17:46.588Z,94758.50
2022-09-23T13:20:19.016Z,94758.16
2022-09-23T13:22:48.651Z,94763.28
2022-09-23T13:25:22.707Z,94754.00
2022-09-23T13:27:52.766Z,94750.00
2022-09-23T13:30:25.959Z,94749.53
2022-09-23T13:33:11.751Z,94748.72
2022-09-23T13:35:50.574Z,94742.16
2022-09-23T13:38:25.634Z,94736.06
2022-09-23T13:40:57.323Z,94736.03
2022-09-23T13:43:31.591Z,94732.25
2022-09-23T13:46:00.199Z,94729.94
2022-09-23T13:48:28.400Z,94725.16
2022-09-23T13:50:55.304Z,94717.41
2022-09-23T13:53:31.153Z,94725.69
2022-09-23T13:56:14.959Z,94727.31
2022-09-23T13:58:43.317Z,94716.22
2022-09-23T14:01:22.369Z,94722.16
2022-09-23T14:03:49.043Z,94716.09
2022-09-23T14:06:16.586Z,94713.56
2022-09-23T14:08:50.347Z,94714.63
2022-09-23T14:11:19.322Z,94704.22
2022-09-23T14:13:48.729Z,94714.72
2022-09-23T14:16:16.927Z,94715.94
2022-09-23T14:18:49.537Z,94705.28
2022-09-23T14:21:37.052Z,94710.09
2022-09-23T14:24:25.173Z,94701.56
2022-09-23T14:26:58.541Z,94703.63
2022-09-23T14:29:29.385Z,94694.59
2022-09-23T14:32:00.181Z,94695.50
2022-09-23T14:34:43.889Z,94689.28
2022-09-23T14:37:47.591Z,94689.31
2022-09-23T14:40:19.942Z,94687.31
2022-09-23T14:42:52.280Z,94688.31
2022-09-23T14:45:23.829Z,94682.16
2022-09-23T14:47:57.405Z,94675.69
2022-09-23T14:50:36.849Z,94675.53
2022-09-23T14:53:03.688Z,94674.41
2022-09-23T14:55:31.436Z,94678.75
2022-09-23T14:58:11.103Z,94681.22
2022-09-23T15:00:37.466Z,94674.84
2022-09-23T15:03:14.860Z,94676.97
2022-09-23T15:05:45.461Z,94676.16
2022-09-23T15:08:20.126Z,94673.25
2022-09-23T15:10:47.120Z,94672.97
2022-09-23T15:13:33.846Z,94672.44
2022-09-23T15:16:01.859Z,94668.44
2022-09-23T15:18:32.830Z,94658.03
2022-09-23T15:21:15.411Z,94667.66
2022-09-23T15:23:48.852Z,94658.56
2022-09-23T15:26:18.097Z,94663.13
2022-09-23T15:28:45.536Z,94661.78
2022-09-23T15:31:16.656Z,94665.25
2022-09-23T15:33:50.878Z,94660.97
2022-09-23T15:36:28.403Z,94670.06
2022-09-23T15:38:58.663Z,94659.91
2022-09-23T15:41:25.073Z,94662.03
2022-09-23T15:43:51.524Z,94662.56
2022-09-23T15:46:25.085Z,94669.50
2022-09-23T15:49:05.423Z,94667.91
2022-09-23T15:51:32.145Z,94661.50
2022-09-23T15:53:58.686Z,94670.84
2022-09-23T15:56:26.969Z,94659.38
2022-09-23T15:58:53.386Z,94670.31
2022-09-23T16:01:28.347Z,94664.19
2022-09-23T16:03:55.678Z,94666.31
2022-09-23T16:06:24.257Z,94664.72
2022-09-23T16:08:52.218Z,94667.38
2022-09-23T16:11:22.864Z,94667.66
2022-09-23T16:13:49.269Z,94666.84
2022-09-23T16:16:16.130Z,94668.19
2022-09-23T16:18:43.840Z,94662.84
2022-09-23T16:21:16.038Z,94657.78
2022-09-23T16:23:47.321Z,94665.00
2022-09-23T16:26:20.727Z,94664.19
2022-09-23T16:28:49.050Z,94666.31
2022-09-23T16:31:16.198Z,94668.72
2022-09-23T16:33:44.047Z,94660.72
2022-09-23T16:36:28.821Z,94665.78
2022-09-23T16:38:55.856Z,94672.75
2022-09-23T16:41:23.541Z,94670.59
2022-09-23T16:43:50.866Z,94676.75
2022-09-23T16:46:18.603Z,94670.06
2022-09-23T16:48:51.365Z,94675.41
2022-09-23T16:51:26.404Z,94684.22
2022-09-23T16:53:54.059Z,94670.88
2022-09-23T16:56:27.435Z,94677.53
2022-09-23T16:58:55.740Z,94676.75
2022-09-23T17:01:43.564Z,94680.22
2022-09-23T17:04:10.689Z,94681.53
2022-09-23T17:06:48.269Z,94693.56
2022-09-23T17:09:14.972Z,94683.69
2022-09-23T17:11:44.330Z,94687.16
2022-09-23T17:14:10.705Z,94683.41
2022-09-23T17:16:37.167Z,94686.63
2022-09-23T17:19:08.244Z,94683.41
2022-09-23T17:21:35.060Z,94679.41
2022-09-23T17:24:02.026Z,94686.63
2022-09-23T17:26:28.820Z,94683.97
2022-09-23T17:28:57.457Z,94689.56
2022-09-23T17:31:25.005Z,94682.28
2022-09-23T17:33:52.646Z,94690.41
2022-09-23T17:36:20.173Z,94682.81
2022-09-23T17:38:48.299Z,94693.53
2022-09-23T17:41:15.398Z,94691.34
2022-09-23T17:43:41.952Z,94695.69
2022-09-23T17:46:14.580Z,94687.44
2022-09-23T17:48:41.936Z,94695.69
2022-09-23T17:51:13.737Z,94693.78
2022-09-23T17:53:42.404Z,94691.91
2022-09-23T17:56:19.286Z,94696.50
2022-09-23T17:58:47.253Z,94691.97
2022-09-23T18:01:22.347Z,94693.28
2022-09-23T18:03:57.424Z,94695.97
2022-09-23T18:06:26.472Z,94694.09
2022-09-23T18:08:53.186Z,94690.06
2022-09-23T18:11:24.900Z,94688.16
2022-09-23T18:13:59.694Z,94692.69
2022-09-23T18:16:33.975Z,94691.13
2022-09-23T18:19:02.191Z,94686.81
2022-09-23T18:21:34.929Z,94693.22
2022-09-23T18:26:52.788Z,94699.34
2022-09-23T18:29:19.663Z,94695.88
2022-09-23T18:31:47.399Z,94707.56
2022-09-23T18:34:16.778Z,94699.34
2022-09-23T18:36:43.936Z,94704.97
2022-09-23T18:39:10.760Z,94699.09
2022-09-23T18:41:37.162Z,94703.38
2022-09-23T18:44:04.196Z,94702.03
2022-09-23T18:46:31.287Z,94708.16
2022-09-23T18:49:17.049Z,94704.16
2022-09-23T18:51:57.321Z,94699.94
2022-09-23T18:54:25.643Z,94697.75
2022-09-23T18:56:52.793Z,94701.53
2022-09-23T18:59:21.007Z,94706.03
2022-09-23T19:01:50.001Z,94703.09
2022-09-23T19:04:18.903Z,94707.38
2022-09-23T19:06:45.828Z,94693.75
2022-09-23T19:09:12.874Z,94699.34
2022-09-23T19:11:39.604Z,94699.91
2022-09-23T19:14:10.727Z,94705.22
2022-09-23T19:16:39.997Z,94703.06
2022-09-23T19:19:07.151Z,94706.97
2022-09-23T19:21:34.398Z,94706.03
2022-09-23T19:24:04.594Z,94697.50
2022-09-23T19:26:37.424Z,94705.50
2022-09-23T19:29:05.973Z,94705.50
2022-09-23T19:31:35.536Z,94700.97
2022-09-23T19:34:06.024Z,94699.34
2022-09-23T19:36:34.414Z,94695.63
2022-09-23T19:39:06.301Z,94696.69
2022-09-23T19:41:33.499Z,94692.16
2022-09-23T19:44:04.013Z,94697.50
2022-09-23T19:46:32.331Z,94697.50
2022-09-23T19:49:00.197Z,94697.50
2022-09-23T19:51:27.263Z,94699.34
2022-09-23T19:53:53.712Z,94692.97
2022-09-23T19:56:20.178Z,94687.63
2022-09-23T19:58:48.501Z,94680.41
2022-09-23T20:01:16.321Z,94685.22
2022-09-23T20:03:47.123Z,94682.28
2022-09-23T20:06:15.129Z,94681.22
2022-09-23T20:08:42.293Z,94678.56
2022-09-23T20:11:29.420Z,94689.75
2022-09-23T20:14:01.117Z,94686.03
2022-09-23T20:16:31.774Z,94679.63
2022-09-23T20:18:59.716Z,94689.75
2022-09-23T20:21:26.444Z,94675.63
2022-09-23T20:23:52.874Z,94674.00
2022-09-23T20:26:37.981Z,94682.81
2022-09-23T20:29:04.748Z,94671.06
2022-09-23T20:31:32.235Z,94673.22
2022-09-23T20:33:59.006Z,94671.63
2022-09-23T20:36:29.245Z,94670.81
2022-09-23T20:39:00.465Z,94675.34
2022-09-23T20:41:31.398Z,94667.38
2022-09-23T20:44:01.295Z,94666.69
2022-09-23T20:46:28.883Z,94664.94
2022-09-23T20:48:56.684Z,94662.81
2022-09-23T20:51:24.729Z,94661.97
2022-09-23T20:53:52.821Z,94653.19
2022-09-23T20:56:21.170Z,94654.28
2022-09-23T20:58:48.597Z,94653.47
2022-09-23T21:01:15.988Z,94648.66
2022-09-23T21:03:44.866Z,94649.81
2022-09-23T21:06:14.598Z,94649.97
2022-09-23T21:08:42.269Z,94638.78
2022-09-23T21:11:15.041Z,94643.88
2022-09-23T21:13:46.831Z,94645.72
2022-09-23T21:16:15.285Z,94646.25
2022-09-23T21:18:42.021Z,94643.59
2022-09-23T21:21:10.267Z,94640.13
2022-09-23T21:23:38.617Z,94650.78
2022-09-23T21:26:06.681Z,94646.34
2022-09-23T21:28:35.033Z,94645.38
2022-09-23T21:31:08.232Z,94642.94
2022-09-23T21:33:37.377Z,94650.41
2022-09-23T21:36:06.450Z,94642.97
2022-09-23T21:38:37.362Z,94647.84
2022-09-23T21:41:07.056Z,94643.84
2022-09-23T21:43:35.987Z,94647.03
2022-09-23T21:46:05.025Z,94647.03
2022-09-23T21:48:34.319Z,94644.38
2022-09-23T21:51:03.164Z,94645.44
2022-09-23T21:53:30.962Z,94640.66
2022-09-23T21:56:06.952Z,94635.84
2022-09-23T21:58:35.183Z,94626.50
2022-09-23T22:01:06.571Z,94622.78
2022-09-23T22:03:33.125Z,94630.25
2022-09-23T22:06:02.475Z,94612.09
2022-09-23T22:08:36.757Z,94621.44
2022-09-23T22:11:29.644Z,94630.78
2022-09-23T22:13:57.261Z,94627.03
2022-09-23T22:16:24.188Z,94625.97
2022-09-23T22:18:57.250Z,94616.13
2022-09-23T22:21:25.446Z,94616.13
2022-09-23T22:23:53.116Z,94621.19
2022-09-23T22:26:20.264Z,94610.53
2022-09-23T22:29:05.055Z,94622.44
2022-09-23T22:31:49.999Z,94617.81
2022-09-23T22:34:37.778Z,94616.06
2022-09-23T22:37:03.570Z,94613.44
2022-09-23T22:39:30.664Z,94615.31
2022-09-23T22:41:58.382Z,94611.03
2022-09-23T22:44:25.666Z,94616.13
2022-09-23T22:46:52.595Z,94612.25
2022-09-23T22:49:19.735Z,94616.47
2022-09-23T22:51:46.370Z,94609.13
2022-09-23T22:54:12.886Z,94601.94
2022-09-23T22:56:39.253Z,94611.56
2022-09-23T22:59:07.796Z,94604.59
2022-09-23T23:01:35.060Z,94598.78
2022-09-23T23:04:02.469Z,94596.09
2022-09-23T23:06:36.586Z,94591.59
2022-09-23T23:09:13.690Z,94583.31
2022-09-23T23:11:42.040Z,94580.91
2022-09-23T23:14:12.675Z,94584.66
2022-09-23T23:16:39.395Z,94584.66
2022-09-23T23:19:09.483Z,94585.69
2022-09-23T23:21:36.863Z,94586.25
2022-09-23T23:24:04.493Z,94580.13
2022-09-23T23:26:33.125Z,94576.66
2022-09-23T23:29:00.590Z,94582.22
2022-09-23T23:31:29.054Z,94577.69
2022-09-23T23:33:55.546Z,94575.81
2022-09-23T23:36:22.976Z,94583.31
2022-09-23T23:38:51.615Z,94590.16
2022-09-23T23:41:21.521Z,94583.78
2022-09-23T23:43:54.904Z,94574.47
2022-09-23T23:46:22.418Z,94577.94
2022-09-23T23:48:49.058Z,94573.16
2022-09-23T23:51:16.334Z,94581.44
2022-09-23T23:53:42.792Z,94575.56
2022-09-23T23:56:12.496Z,94571.25
2022-09-23T23:58:39.789Z,94571.25
